Portada
METAR-TAF:

METAR-TAF

Aeroports :

Irkutsk, Rússia

latitud: 52-16N, longitud: 104-19E, altitud: 513 m

Observació

L'informe es va fer fa 22 minuts, a les 14:00 UTC
Vent 10 kt del Sud/Sud-Est
Temperatura 2°C
Humitat 64%
Pressió 1023 hPa
Visibilitat 10 km o més
sense núvols per sota de 1500 mi sense presència de cumulonimbus.

METAR: UIII 071400Z 15005MPS CAVOK 02/M04 Q1023 R30/CLRD60 NOSIG RMK QFE722/0963

Hora: 22:22 (14:22 UTC)

Pronòstic

L'informe es va fer fa 3 hores i 22 minuts, a les 11:00 UTC
Pronòstic vàlid del 07 a les 12 UTC al 08 a les 12 UTC
Vent 2 kt amb direcció variable
Visibilitat 10 km o més
Núvols disperses a una alçada de 2000 ft, Cumulonimbus.

TAF: UIII 071100Z 0712/0812 VRB01MPS 9999 SCT020CB

Observacions i pronòstics meteorològics de més de 4000 aeroports (METAR i TAF).

Les estacions disponibles són els punts grocs i vermells al mapa.

Posi el ratolí al punt desitjat per veure el nom de l'estació.

Feu clic per veure les observacions i els pronòstics meteorològics.

Per canviar el mapa: feu clic els botons verds amb una creu de color negre per apropar; al botó verd amb un guió per allunyar la imatge; o en les fletxes verdes per a mapes adjacents.


METAR-TAF: